createdAt,value
2023-02-06T00:00:18.478Z,0.80
2023-02-06T00:03:16.288Z,0.90
2023-02-06T00:06:14.035Z,0.80
2023-02-06T00:09:12.007Z,0.90
2023-02-06T00:12:09.786Z,0.90
2023-02-06T00:15:07.977Z,0.80
2023-02-06T00:18:05.796Z,0.80
2023-02-06T00:21:03.665Z,0.80
2023-02-06T00:24:03.443Z,0.70
2023-02-06T00:27:01.064Z,0.70
2023-02-06T00:29:58.814Z,0.70
2023-02-06T00:32:57.028Z,0.70
2023-02-06T00:35:54.893Z,0.70
2023-02-06T00:38:52.647Z,0.70
2023-02-06T00:41:50.649Z,0.80
2023-02-06T00:44:49.502Z,0.70
2023-02-06T00:47:47.220Z,0.70
2023-02-06T00:50:45.053Z,0.80
2023-02-06T00:53:42.841Z,0.70
2023-02-06T00:56:40.486Z,0.70
2023-02-06T00:59:38.337Z,0.70
2023-02-06T01:02:37.502Z,0.70
2023-02-06T01:05:35.407Z,0.70
2023-02-06T01:08:33.549Z,0.70
2023-02-06T01:11:31.289Z,0.60
2023-02-06T01:14:29.127Z,0.50
2023-02-06T01:17:27.181Z,0.40
2023-02-06T01:20:25.207Z,0.40
2023-02-06T01:23:24.339Z,0.40
2023-02-06T01:26:27.331Z,0.40
2023-02-06T01:29:25.073Z,0.40
2023-02-06T01:32:23.226Z,0.30
2023-02-06T01:35:21.369Z,0.30
2023-02-06T01:38:19.242Z,0.40
2023-02-06T01:41:18.358Z,0.40
2023-02-06T01:44:20.576Z,0.40
2023-02-06T01:47:19.137Z,0.20
2023-02-06T01:50:16.846Z,0.20
2023-02-06T01:53:16.750Z,0.20
2023-02-06T01:56:20.107Z,0.10
2023-02-06T01:59:17.442Z,0.00
2023-02-06T02:02:15.427Z,0.10
2023-02-06T02:05:13.977Z,0.00
2023-02-06T02:08:19.202Z,-0.10
2023-02-06T02:11:21.264Z,-0.10
2023-02-06T02:14:19.157Z,-0.10
2023-02-06T02:17:34.069Z,-0.10
2023-02-06T02:21:02.121Z,-0.10
2023-02-06T02:24:12.559Z,-0.10
2023-02-06T02:27:39.873Z,-0.10
2023-02-06T02:31:02.804Z,-0.10
2023-02-06T02:34:35.938Z,0.00
2023-02-06T02:37:59.922Z,0.10
2023-02-06T02:41:17.570Z,0.10
2023-02-06T02:44:26.812Z,0.30
2023-02-06T02:47:32.751Z,0.40
2023-02-06T02:50:31.841Z,0.40
2023-02-06T02:53:29.631Z,0.50
2023-02-06T02:56:28.084Z,0.60
2023-02-06T02:59:35.413Z,0.60
2023-02-06T03:02:37.539Z,0.70
2023-02-06T03:05:40.922Z,0.90
2023-02-06T03:08:53.747Z,0.90
2023-02-06T03:12:04.112Z,0.90
2023-02-06T03:15:19.996Z,1.10
2023-02-06T03:18:24.429Z,1.20
2023-02-06T03:21:24.379Z,1.40
2023-02-06T03:24:26.498Z,1.50
2023-02-06T03:27:27.580Z,1.60
2023-02-06T03:30:27.653Z,1.70
2023-02-06T03:33:32.238Z,1.90
2023-02-06T03:36:30.172Z,2.00
2023-02-06T03:39:28.519Z,2.20
2023-02-06T03:42:28.089Z,2.40
2023-02-06T03:45:31.215Z,2.60
2023-02-06T03:48:35.775Z,2.70
2023-02-06T03:51:39.891Z,2.80
2023-02-06T03:54:43.560Z,2.90
2023-02-06T03:57:43.792Z,3.00
2023-02-06T04:00:44.612Z,3.10
2023-02-06T04:03:43.342Z,3.30
2023-02-06T04:06:41.135Z,3.40
2023-02-06T04:09:39.739Z,3.50
2023-02-06T04:12:37.702Z,3.70
2023-02-06T04:15:35.878Z,3.80
2023-02-06T04:18:33.833Z,3.90
2023-02-06T04:21:31.851Z,4.00
2023-02-06T04:24:31.021Z,4.30
2023-02-06T04:27:29.004Z,4.50
2023-02-06T04:30:26.860Z,4.70
2023-02-06T04:33:25.036Z,4.80
2023-02-06T04:36:22.833Z,5.00
2023-02-06T04:39:20.563Z,5.00
2023-02-06T04:42:18.401Z,5.10
2023-02-06T04:45:16.096Z,5.30
2023-02-06T04:48:14.165Z,5.50
2023-02-06T04:51:11.957Z,5.70
2023-02-06T04:54:14.488Z,5.80
2023-02-06T04:57:12.525Z,5.90
2023-02-06T05:00:10.945Z,6.10
2023-02-06T05:03:11.948Z,6.30
2023-02-06T05:06:09.798Z,6.20
2023-02-06T05:09:07.701Z,6.30
2023-02-06T05:12:05.690Z,6.30
2023-02-06T05:15:03.922Z,6.10
2023-02-06T05:18:01.976Z,6.00
2023-02-06T05:21:00.089Z,6.00
2023-02-06T05:23:57.761Z,6.10
2023-02-06T05:26:58.391Z,6.00
2023-02-06T05:29:56.727Z,6.20
2023-02-06T05:32:54.479Z,6.20
2023-02-06T05:35:52.365Z,6.30
2023-02-06T05:38:51.282Z,6.40
2023-02-06T05:41:49.216Z,6.50
2023-02-06T05:44:46.938Z,6.50
2023-02-06T05:47:44.738Z,6.20
2023-02-06T05:50:43.381Z,6.00
2023-02-06T05:53:41.247Z,5.90
2023-02-06T05:56:39.169Z,6.30
2023-02-06T05:59:36.886Z,6.60
2023-02-06T06:02:34.682Z,6.60
2023-02-06T06:05:32.986Z,6.80
2023-02-06T06:08:30.836Z,6.80
2023-02-06T06:11:30.996Z,6.50
2023-02-06T06:14:28.915Z,6.50
2023-02-06T06:17:26.752Z,6.50
2023-02-06T06:20:25.439Z,6.50
2023-02-06T06:23:23.145Z,6.50
2023-02-06T06:26:21.054Z,6.00
2023-02-06T06:29:19.180Z,6.10
2023-02-06T06:32:16.956Z,6.50
2023-02-06T06:35:14.964Z,6.70
2023-02-06T06:38:12.691Z,6.50
2023-02-06T06:41:10.641Z,6.30
2023-02-06T06:44:08.308Z,5.80
2023-02-06T06:47:06.467Z,5.20
2023-02-06T06:50:04.593Z,5.20
2023-02-06T06:53:02.824Z,5.30
2023-02-06T06:56:06.158Z,5.40
2023-02-06T06:59:03.584Z,6.00
2023-02-06T07:02:05.385Z,6.30
2023-02-06T07:05:03.208Z,6.30
2023-02-06T07:08:01.020Z,6.70
2023-02-06T07:10:59.758Z,6.70
2023-02-06T07:13:57.644Z,6.90
2023-02-06T07:16:56.843Z,6.90
2023-02-06T07:19:54.584Z,6.90
2023-02-06T07:22:54.046Z,6.90
2023-02-06T07:25:52.031Z,7.20
2023-02-06T07:28:50.297Z,7.30
2023-02-06T07:31:48.201Z,7.40
2023-02-06T07:34:45.976Z,7.60
2023-02-06T07:37:43.807Z,7.50
2023-02-06T07:40:45.656Z,7.50
2023-02-06T07:43:43.735Z,7.60
2023-02-06T07:46:43.052Z,7.60
2023-02-06T07:49:40.655Z,7.70
2023-02-06T07:52:38.899Z,7.70
2023-02-06T07:55:41.524Z,6.60
2023-02-06T07:58:39.379Z,6.70
2023-02-06T08:01:38.006Z,6.70
2023-02-06T08:04:36.731Z,5.70
2023-02-06T08:07:34.719Z,6.00
2023-02-06T08:10:33.035Z,6.20
2023-02-06T08:13:30.745Z,5.80
2023-02-06T08:16:28.722Z,5.60
2023-02-06T08:19:26.585Z,5.80
2023-02-06T08:22:24.414Z,6.20
2023-02-06T08:25:22.674Z,6.30
2023-02-06T08:28:20.986Z,6.20
2023-02-06T08:31:25.279Z,5.90
2023-02-06T08:34:23.212Z,5.90
2023-02-06T08:37:21.298Z,6.10
2023-02-06T08:40:19.594Z,6.10
2023-02-06T08:43:17.445Z,6.10
2023-02-06T08:46:17.916Z,6.00
2023-02-06T08:49:18.935Z,6.10
2023-02-06T08:52:20.098Z,6.10
2023-02-06T08:55:18.135Z,5.70
2023-02-06T08:58:15.779Z,5.90
2023-02-06T09:01:17.702Z,6.20
2023-02-06T09:04:16.385Z,6.20
2023-02-06T09:07:16.957Z,6.20
2023-02-06T09:10:26.737Z,6.20
2023-02-06T09:13:26.780Z,6.30
2023-02-06T09:16:26.552Z,6.10
2023-02-06T09:19:24.374Z,6.10
2023-02-06T09:22:22.427Z,6.10
2023-02-06T09:25:20.640Z,6.00
2023-02-06T09:28:18.682Z,5.80
2023-02-06T09:31:16.622Z,5.70
2023-02-06T09:34:14.504Z,5.50
2023-02-06T09:37:12.528Z,5.10
2023-02-06T09:40:16.557Z,4.80
2023-02-06T09:43:15.341Z,4.70
2023-02-06T09:46:17.076Z,4.80
2023-02-06T09:49:25.023Z,5.00
2023-02-06T09:52:46.820Z,5.00
2023-02-06T09:56:07.656Z,4.90
2023-02-06T09:59:18.502Z,4.80
2023-02-06T10:02:38.346Z,4.90
2023-02-06T10:05:50.436Z,4.40
2023-02-06T10:09:02.596Z,4.40
2023-02-06T10:12:10.412Z,4.50
2023-02-06T10:15:21.323Z,4.30
2023-02-06T10:18:37.763Z,4.60
2023-02-06T10:21:42.494Z,4.20
2023-02-06T10:24:54.543Z,4.00
2023-02-06T10:27:58.982Z,4.00
2023-02-06T10:31:23.344Z,4.10
2023-02-06T10:34:43.768Z,4.20
2023-02-06T10:38:05.459Z,4.00
2023-02-06T10:41:19.869Z,3.90
2023-02-06T10:44:35.829Z,4.10
2023-02-06T10:47:40.458Z,4.10
2023-02-06T10:50:56.053Z,4.20
2023-02-06T10:53:59.236Z,4.00
2023-02-06T10:56:59.647Z,4.00
2023-02-06T11:00:02.380Z,3.80
2023-02-06T11:03:08.040Z,3.70
2023-02-06T11:06:06.592Z,3.50
2023-02-06T11:09:04.700Z,3.50
2023-02-06T11:12:03.384Z,3.60
2023-02-06T11:15:09.790Z,3.70
2023-02-06T11:18:12.210Z,3.70
2023-02-06T11:21:13.257Z,3.80
2023-02-06T11:24:14.080Z,3.90
2023-02-06T11:27:17.286Z,3.90
2023-02-06T11:30:36.173Z,3.90
2023-02-06T11:33:52.822Z,3.80
2023-02-06T11:36:57.045Z,3.60
2023-02-06T11:39:54.879Z,3.50
2023-02-06T11:43:11.119Z,3.20
2023-02-06T11:46:26.294Z,3.00
2023-02-06T11:49:31.317Z,2.90
2023-02-06T11:52:32.079Z,2.80
2023-02-06T11:55:34.905Z,2.80
2023-02-06T11:58:36.171Z,2.70
2023-02-06T12:01:43.859Z,2.60
2023-02-06T12:04:45.829Z,2.50
2023-02-06T12:07:54.184Z,2.30
2023-02-06T12:10:59.419Z,2.40
2023-02-06T12:14:05.392Z,2.20
2023-02-06T12:17:08.361Z,2.20
2023-02-06T12:20:14.754Z,2.10
2023-02-06T12:23:22.804Z,2.10
2023-02-06T12:26:24.762Z,2.10
2023-02-06T12:29:32.463Z,2.00
2023-02-06T12:32:44.011Z,2.00
2023-02-06T12:35:54.442Z,2.10
2023-02-06T12:39:07.925Z,2.10
2023-02-06T12:42:28.764Z,2.10
2023-02-06T12:45:45.113Z,2.00
2023-02-06T12:48:52.768Z,2.10
2023-02-06T12:52:11.637Z,2.10
2023-02-06T12:55:22.425Z,2.00
2023-02-06T12:58:29.475Z,2.00
2023-02-06T13:01:56.123Z,1.90
2023-02-06T13:04:54.909Z,1.90
2023-02-06T13:07:55.231Z,1.80
2023-02-06T13:11:23.923Z,1.80
2023-02-06T13:14:25.817Z,1.70
2023-02-06T13:17:26.536Z,1.60
2023-02-06T13:20:26.422Z,1.60
2023-02-06T13:23:26.173Z,1.60
2023-02-06T13:27:03.583Z,1.50
2023-02-06T13:30:34.365Z,1.50
2023-02-06T13:33:44.117Z,1.40
2023-02-06T13:36:52.648Z,1.40
2023-02-06T13:40:10.456Z,1.30
2023-02-06T13:43:22.015Z,1.30
2023-02-06T13:46:23.429Z,1.20
2023-02-06T13:50:13.678Z,1.10
2023-02-06T13:53:45.592Z,1.00
2023-02-06T13:57:13.938Z,1.10
2023-02-06T14:00:23.432Z,1.10
2023-02-06T14:03:31.352Z,1.10
2023-02-06T14:07:02.532Z,1.10
2023-02-06T14:10:38.756Z,1.00
2023-02-06T14:13:48.111Z,0.90
2023-02-06T14:16:53.139Z,1.00
2023-02-06T14:20:29.959Z,0.90
2023-02-06T14:23:45.667Z,1.00
2023-02-06T14:26:49.077Z,1.00
2023-02-06T14:29:54.569Z,1.00
2023-02-06T14:33:06.219Z,1.00
2023-02-06T14:36:22.895Z,1.00
2023-02-06T14:39:55.333Z,1.00
2023-02-06T14:42:57.363Z,0.80
2023-02-06T14:46:07.932Z,0.90
2023-02-06T14:49:06.609Z,1.00
2023-02-06T14:52:06.008Z,1.00
2023-02-06T14:55:34.014Z,0.80
2023-02-06T14:58:32.067Z,0.70
2023-02-06T15:01:32.583Z,0.60
2023-02-06T15:04:31.258Z,0.60
2023-02-06T15:07:34.967Z,0.70
2023-02-06T15:10:38.119Z,0.70
2023-02-06T15:13:36.691Z,0.60
2023-02-06T15:16:47.476Z,0.50
2023-02-06T15:19:45.216Z,0.50
2023-02-06T15:22:44.885Z,0.50
2023-02-06T15:26:06.538Z,0.60
2023-02-06T15:29:06.774Z,0.50
2023-02-06T15:32:08.306Z,0.60
2023-02-06T15:35:21.836Z,0.60
2023-02-06T15:38:21.361Z,0.60
2023-02-06T15:41:19.881Z,0.50
2023-02-06T15:44:25.623Z,0.50
2023-02-06T15:47:23.941Z,0.50
2023-02-06T15:50:30.920Z,0.40
2023-02-06T15:53:51.192Z,0.40
2023-02-06T15:56:52.115Z,0.30
2023-02-06T15:59:49.729Z,0.40
2023-02-06T16:02:48.075Z,0.30
2023-02-06T16:05:45.940Z,0.30
2023-02-06T16:08:50.829Z,0.20
2023-02-06T16:11:53.394Z,0.30
2023-02-06T16:15:00.027Z,0.30
2023-02-06T16:18:00.560Z,0.30
2023-02-06T16:21:16.755Z,0.20
2023-02-06T16:24:18.362Z,0.20
2023-02-06T16:27:21.588Z,0.20
2023-02-06T16:30:31.697Z,0.20
2023-02-06T16:33:41.414Z,0.20
2023-02-06T16:36:39.032Z,0.20
2023-02-06T16:39:37.006Z,0.20
2023-02-06T16:42:37.697Z,0.00
2023-02-06T16:45:35.470Z,0.10
2023-02-06T16:48:33.291Z,0.10
2023-02-06T16:51:32.501Z,0.10
2023-02-06T16:54:32.504Z,0.00
2023-02-06T16:57:33.464Z,0.00
2023-02-06T17:00:32.606Z,-0.10
2023-02-06T17:03:33.423Z,0.00
2023-02-06T17:06:35.109Z,0.00
2023-02-06T17:09:32.905Z,0.10
2023-02-06T17:12:32.334Z,0.10
2023-02-06T17:15:30.355Z,0.00
2023-02-06T17:18:28.344Z,0.00
2023-02-06T17:21:28.768Z,-0.10
2023-02-06T17:24:26.485Z,-0.10
2023-02-06T17:27:24.322Z,-0.10
2023-02-06T17:30:23.585Z,-0.10
2023-02-06T17:33:21.630Z,-0.10
2023-02-06T17:36:29.691Z,-0.10
2023-02-06T17:39:27.459Z,-0.10
2023-02-06T17:42:26.136Z,-0.20
2023-02-06T17:45:24.062Z,-0.20
2023-02-06T17:48:21.706Z,-0.20
2023-02-06T17:51:19.592Z,-0.20
2023-02-06T17:54:17.251Z,-0.20
2023-02-06T17:57:15.118Z,-0.20
2023-02-06T18:00:16.866Z,-0.30
2023-02-06T18:03:17.641Z,-0.30
2023-02-06T18:06:15.333Z,-0.30
2023-02-06T18:09:13.768Z,-0.40
2023-02-06T18:12:11.502Z,-0.50
2023-02-06T18:15:10.090Z,-0.40
2023-02-06T18:18:07.882Z,-0.60
2023-02-06T18:21:05.794Z,-0.70
2023-02-06T18:24:03.475Z,-0.70
2023-02-06T18:27:03.738Z,-0.90
2023-02-06T18:30:04.310Z,-1.10
2023-02-06T18:33:02.639Z,-1.10
2023-02-06T18:36:05.954Z,-1.00
2023-02-06T18:39:04.223Z,-1.00
2023-02-06T18:42:20.651Z,-0.90
2023-02-06T18:45:19.770Z,-1.10
2023-02-06T18:48:17.464Z,-1.10
2023-02-06T18:51:15.225Z,-1.30
2023-02-06T18:54:12.932Z,-1.30
2023-02-06T18:57:11.178Z,-1.20
2023-02-06T19:00:12.866Z,-1.30
2023-02-06T19:03:10.800Z,-1.50
2023-02-06T19:06:13.830Z,-1.70
2023-02-06T19:09:14.195Z,-1.80
2023-02-06T19:12:11.957Z,-1.90
2023-02-06T19:15:10.767Z,-2.10
2023-02-06T19:18:09.387Z,-2.10
2023-02-06T19:21:12.823Z,-2.10
2023-02-06T19:24:14.405Z,-1.90
2023-02-06T19:27:12.995Z,-1.90
2023-02-06T19:30:11.849Z,-2.00
2023-02-06T19:33:09.627Z,-2.00
2023-02-06T19:36:13.683Z,-1.80
2023-02-06T19:39:13.737Z,-1.70
2023-02-06T19:42:15.860Z,-1.80
2023-02-06T19:45:14.184Z,-1.90
2023-02-06T19:48:14.795Z,-2.00
2023-02-06T19:51:18.382Z,-2.00
2023-02-06T19:54:17.116Z,-1.90
2023-02-06T19:57:15.567Z,-1.90
2023-02-06T20:00:13.651Z,-1.90
2023-02-06T20:03:11.720Z,-1.90
2023-02-06T20:06:13.577Z,-1.90
2023-02-06T20:09:14.045Z,-1.90
2023-02-06T20:12:15.608Z,-2.00
2023-02-06T20:15:13.654Z,-2.00
2023-02-06T20:18:11.322Z,-1.90
2023-02-06T20:21:20.932Z,-1.80
2023-02-06T20:24:22.717Z,-1.70
2023-02-06T20:27:20.376Z,-1.60
2023-02-06T20:30:19.457Z,-1.50
2023-02-06T20:33:17.328Z,-1.40
2023-02-06T20:36:19.438Z,-1.40
2023-02-06T20:39:17.828Z,-1.30
2023-02-06T20:42:15.982Z,-1.30
2023-02-06T20:45:13.812Z,-1.30
2023-02-06T20:48:11.403Z,-1.30
2023-02-06T20:51:09.128Z,-1.20
2023-02-06T20:54:07.223Z,-1.20
2023-02-06T20:57:05.482Z,-1.20
2023-02-06T21:00:06.368Z,-1.00
2023-02-06T21:03:04.651Z,-1.00
2023-02-06T21:06:02.276Z,-1.10
2023-02-06T21:09:02.878Z,-1.20
2023-02-06T21:12:00.538Z,-1.10
2023-02-06T21:14:58.311Z,-1.00
2023-02-06T21:17:55.957Z,-1.00
2023-02-06T21:20:55.756Z,-1.10
2023-02-06T21:23:56.249Z,-1.20
2023-02-06T21:26:54.588Z,-1.10
2023-02-06T21:29:52.206Z,-0.90
2023-02-06T21:32:49.913Z,-0.90
2023-02-06T21:35:53.989Z,-1.00
2023-02-06T21:38:51.978Z,-1.10
2023-02-06T21:41:54.115Z,-1.10
2023-02-06T21:44:51.885Z,-1.20
2023-02-06T21:47:49.572Z,-1.30
2023-02-06T21:50:47.204Z,-1.30
2023-02-06T21:53:45.978Z,-1.40
2023-02-06T21:56:44.394Z,-1.30
2023-02-06T21:59:42.481Z,-1.30
2023-02-06T22:02:40.467Z,-1.30
2023-02-06T22:05:39.134Z,-1.30
2023-02-06T22:08:37.876Z,-1.30
2023-02-06T22:11:40.200Z,-1.30
2023-02-06T22:14:38.110Z,-1.40
2023-02-06T22:17:35.981Z,-1.40
2023-02-06T22:20:33.868Z,-1.50
2023-02-06T22:23:31.704Z,-1.30
2023-02-06T22:26:34.308Z,-1.30
2023-02-06T22:29:32.711Z,-1.40
2023-02-06T22:32:30.795Z,-1.40
2023-02-06T22:35:28.393Z,-1.50
2023-02-06T22:38:26.338Z,-1.50
2023-02-06T22:41:24.044Z,-1.50
2023-02-06T22:44:22.251Z,-1.50
2023-02-06T22:47:19.892Z,-1.50
2023-02-06T22:50:17.777Z,-1.50
2023-02-06T22:53:31.177Z,-1.50
2023-02-06T22:56:32.235Z,-1.40
2023-02-06T22:59:30.102Z,-1.40
2023-02-06T23:02:27.784Z,-1.50
2023-02-06T23:05:25.479Z,-1.50
2023-02-06T23:08:23.205Z,-1.50
2023-02-06T23:11:20.940Z,-1.50
2023-02-06T23:14:19.922Z,-1.50
2023-02-06T23:17:17.773Z,-1.40
2023-02-06T23:20:15.699Z,-1.30
2023-02-06T23:23:13.320Z,-1.30
2023-02-06T23:26:12.663Z,-1.40
2023-02-06T23:29:16.108Z,-1.40
2023-02-06T23:32:13.540Z,-1.50
2023-02-06T23:35:11.968Z,-1.30
2023-02-06T23:38:10.216Z,-1.30
2023-02-06T23:41:16.765Z,-1.30
2023-02-06T23:44:14.897Z,-1.40
2023-02-06T23:47:12.491Z,-1.50
2023-02-06T23:50:10.709Z,-1.50
2023-02-06T23:53:08.297Z,-1.50
2023-02-06T23:56:14.600Z,-1.60
2023-02-06T23:59:12.891Z,-1.50
